sensor_id;sensor_type;location;lat;lon;timestamp;P1;durP1;ratioP1;P2;durP2;ratioP2
79755;SDS011;69239;50.678;12.280;2023-09-12T00:00:51;9.52;;;5.90;;
79755;SDS011;69239;50.678;12.280;2023-09-12T00:03:20;7.65;;;5.63;;
79755;SDS011;69239;50.678;12.280;2023-09-12T00:05:52;12.68;;;6.13;;
79755;SDS011;69239;50.678;12.280;2023-09-12T00:08:19;7.82;;;5.88;;
79755;SDS011;69239;50.678;12.280;2023-09-12T00:10:44;8.10;;;5.78;;
79755;SDS011;69239;50.678;12.280;2023-09-12T00:13:10;9.23;;;5.78;;
79755;SDS011;69239;50.678;12.280;2023-09-12T00:15:35;10.05;;;6.50;;
79755;SDS011;69239;50.678;12.280;2023-09-12T00:18:00;9.20;;;5.97;;
79755;SDS011;69239;50.678;12.280;2023-09-12T00:20:26;9.88;;;5.90;;
79755;SDS011;69239;50.678;12.280;2023-09-12T00:22:51;9.00;;;6.13;;
79755;SDS011;69239;50.678;12.280;2023-09-12T00:25:19;12.43;;;6.35;;
79755;SDS011;69239;50.678;12.280;2023-09-12T00:27:45;8.45;;;6.85;;
79755;SDS011;69239;50.678;12.280;2023-09-12T00:30:11;9.63;;;6.20;;
79755;SDS011;69239;50.678;12.280;2023-09-12T00:32:36;7.65;;;5.28;;
79755;SDS011;69239;50.678;12.280;2023-09-12T00:35:02;10.98;;;6.75;;
79755;SDS011;69239;50.678;12.280;2023-09-12T00:37:28;10.98;;;6.53;;
79755;SDS011;69239;50.678;12.280;2023-09-12T00:39:53;9.07;;;6.18;;
79755;SDS011;69239;50.678;12.280;2023-09-12T00:42:19;7.22;;;5.80;;
79755;SDS011;69239;50.678;12.280;2023-09-12T00:44:44;9.48;;;6.63;;
79755;SDS011;69239;50.678;12.280;2023-09-12T00:47:09;10.73;;;7.53;;
79755;SDS011;69239;50.678;12.280;2023-09-12T00:49:36;9.82;;;6.75;;
79755;SDS011;69239;50.678;12.280;2023-09-12T00:52:03;6.95;;;5.40;;
79755;SDS011;69239;50.678;12.280;2023-09-12T00:54:29;11.95;;;6.22;;
79755;SDS011;69239;50.678;12.280;2023-09-12T00:56:54;7.72;;;5.88;;
79755;SDS011;69239;50.678;12.280;2023-09-12T00:59:20;8.55;;;5.70;;
79755;SDS011;69239;50.678;12.280;2023-09-12T01:01:45;9.98;;;5.75;;
79755;SDS011;69239;50.678;12.280;2023-09-12T01:04:11;10.45;;;6.20;;
79755;SDS011;69239;50.678;12.280;2023-09-12T01:06:37;10.30;;;6.07;;
79755;SDS011;69239;50.678;12.280;2023-09-12T01:09:03;8.10;;;5.68;;
79755;SDS011;69239;50.678;12.280;2023-09-12T01:11:29;11.05;;;6.18;;
79755;SDS011;69239;50.678;12.280;2023-09-12T01:13:55;9.20;;;6.40;;
79755;SDS011;69239;50.678;12.280;2023-09-12T01:16:20;9.48;;;6.72;;
79755;SDS011;69239;50.678;12.280;2023-09-12T01:18:45;9.43;;;5.87;;
79755;SDS011;69239;50.678;12.280;2023-09-12T01:29:22;8.50;;;6.50;;
79755;SDS011;69239;50.678;12.280;2023-09-12T01:31:49;9.73;;;6.15;;
79755;SDS011;69239;50.678;12.280;2023-09-12T01:34:17;8.15;;;5.85;;
79755;SDS011;69239;50.678;12.280;2023-09-12T01:36:44;10.98;;;6.30;;
79755;SDS011;69239;50.678;12.280;2023-09-12T01:39:09;11.90;;;6.95;;
79755;SDS011;69239;50.678;12.280;2023-09-12T01:41:35;11.85;;;6.63;;
79755;SDS011;69239;50.678;12.280;2023-09-12T01:44:05;10.02;;;6.70;;
79755;SDS011;69239;50.678;12.280;2023-09-12T01:46:32;8.73;;;6.38;;
79755;SDS011;69239;50.678;12.280;2023-09-12T01:48:59;10.60;;;7.63;;
79755;SDS011;69239;50.678;12.280;2023-09-12T01:51:25;11.00;;;6.97;;
79755;SDS011;69239;50.678;12.280;2023-09-12T01:53:53;13.25;;;6.47;;
79755;SDS011;69239;50.678;12.280;2023-09-12T01:56:19;8.50;;;6.00;;
79755;SDS011;69239;50.678;12.280;2023-09-12T01:58:46;8.90;;;5.70;;
79755;SDS011;69239;50.678;12.280;2023-09-12T02:01:11;10.70;;;6.15;;
79755;SDS011;69239;50.678;12.280;2023-09-12T02:03:36;6.75;;;5.50;;
79755;SDS011;69239;50.678;12.280;2023-09-12T02:06:02;8.40;;;6.32;;
79755;SDS011;69239;50.678;12.280;2023-09-12T02:08:27;8.85;;;6.10;;
79755;SDS011;69239;50.678;12.280;2023-09-12T02:10:53;9.95;;;6.47;;
79755;SDS011;69239;50.678;12.280;2023-09-12T02:13:18;8.30;;;6.53;;
79755;SDS011;69239;50.678;12.280;2023-09-12T02:15:43;9.85;;;6.50;;
79755;SDS011;69239;50.678;12.280;2023-09-12T02:18:09;8.70;;;6.78;;
79755;SDS011;69239;50.678;12.280;2023-09-12T02:20:37;10.25;;;6.93;;
79755;SDS011;69239;50.678;12.280;2023-09-12T02:23:03;11.02;;;7.03;;
79755;SDS011;69239;50.678;12.280;2023-09-12T02:25:29;7.68;;;6.30;;
79755;SDS011;69239;50.678;12.280;2023-09-12T02:27:54;8.20;;;6.53;;
79755;SDS011;69239;50.678;12.280;2023-09-12T02:30:19;10.57;;;6.75;;
79755;SDS011;69239;50.678;12.280;2023-09-12T02:32:45;10.38;;;6.30;;
79755;SDS011;69239;50.678;12.280;2023-09-12T02:35:10;9.50;;;6.65;;
79755;SDS011;69239;50.678;12.280;2023-09-12T02:37:36;12.45;;;7.32;;
79755;SDS011;69239;50.678;12.280;2023-09-12T02:40:01;11.68;;;6.95;;
79755;SDS011;69239;50.678;12.280;2023-09-12T02:42:29;9.80;;;6.70;;
79755;SDS011;69239;50.678;12.280;2023-09-12T02:44:54;10.13;;;6.70;;
79755;SDS011;69239;50.678;12.280;2023-09-12T02:47:20;8.77;;;6.57;;
79755;SDS011;69239;50.678;12.280;2023-09-12T02:49:45;9.45;;;6.70;;
79755;SDS011;69239;50.678;12.280;2023-09-12T02:52:10;9.63;;;7.07;;
79755;SDS011;69239;50.678;12.280;2023-09-12T02:54:36;11.00;;;7.37;;
79755;SDS011;69239;50.678;12.280;2023-09-12T02:57:01;10.35;;;6.65;;
79755;SDS011;69239;50.678;12.280;2023-09-12T02:59:26;11.63;;;7.43;;
79755;SDS011;69239;50.678;12.280;2023-09-12T03:01:51;8.73;;;6.30;;
79755;SDS011;69239;50.678;12.280;2023-09-12T03:04:17;10.88;;;6.35;;
79755;SDS011;69239;50.678;12.280;2023-09-12T03:06:42;8.32;;;6.65;;
79755;SDS011;69239;50.678;12.280;2023-09-12T03:15:41;10.25;;;6.65;;
79755;SDS011;69239;50.678;12.280;2023-09-12T03:18:07;8.13;;;6.25;;
79755;SDS011;69239;50.678;12.280;2023-09-12T03:20:37;12.45;;;7.13;;
79755;SDS011;69239;50.678;12.280;2023-09-12T03:23:03;12.23;;;7.18;;
79755;SDS011;69239;50.678;12.280;2023-09-12T03:25:28;9.40;;;6.63;;
79755;SDS011;69239;50.678;12.280;2023-09-12T03:27:53;11.87;;;7.30;;
79755;SDS011;69239;50.678;12.280;2023-09-12T03:30:19;11.70;;;6.60;;
79755;SDS011;69239;50.678;12.280;2023-09-12T03:32:45;10.55;;;7.35;;
79755;SDS011;69239;50.678;12.280;2023-09-12T03:35:10;9.17;;;6.03;;
79755;SDS011;69239;50.678;12.280;2023-09-12T03:37:36;10.97;;;6.43;;
79755;SDS011;69239;50.678;12.280;2023-09-12T03:40:05;8.13;;;6.40;;
79755;SDS011;69239;50.678;12.280;2023-09-12T03:42:32;10.73;;;7.13;;
79755;SDS011;69239;50.678;12.280;2023-09-12T03:44:57;11.10;;;6.68;;
79755;SDS011;69239;50.678;12.280;2023-09-12T03:47:22;9.70;;;7.07;;
79755;SDS011;69239;50.678;12.280;2023-09-12T03:49:48;7.93;;;6.03;;
79755;SDS011;69239;50.678;12.280;2023-09-12T03:52:13;8.83;;;6.57;;
79755;SDS011;69239;50.678;12.280;2023-09-12T03:54:38;10.80;;;6.90;;
79755;SDS011;69239;50.678;12.280;2023-09-12T03:57:04;10.63;;;7.03;;
79755;SDS011;69239;50.678;12.280;2023-09-12T03:59:29;10.70;;;7.38;;
79755;SDS011;69239;50.678;12.280;2023-09-12T04:01:54;12.03;;;7.13;;
79755;SDS011;69239;50.678;12.280;2023-09-12T04:04:20;9.97;;;7.67;;
79755;SDS011;69239;50.678;12.280;2023-09-12T04:06:45;11.13;;;7.37;;
79755;SDS011;69239;50.678;12.280;2023-09-12T04:09:11;12.23;;;7.45;;
79755;SDS011;69239;50.678;12.280;2023-09-12T04:11:37;11.77;;;7.57;;
79755;SDS011;69239;50.678;12.280;2023-09-12T04:14:02;11.98;;;7.45;;
79755;SDS011;69239;50.678;12.280;2023-09-12T04:16:27;10.23;;;7.25;;
79755;SDS011;69239;50.678;12.280;2023-09-12T04:18:53;9.93;;;7.10;;
79755;SDS011;69239;50.678;12.280;2023-09-12T04:21:18;14.23;;;8.20;;
79755;SDS011;69239;50.678;12.280;2023-09-12T04:23:43;13.10;;;7.90;;
79755;SDS011;69239;50.678;12.280;2023-09-12T04:26:09;13.02;;;8.27;;
79755;SDS011;69239;50.678;12.280;2023-09-12T04:28:34;9.60;;;7.20;;
79755;SDS011;69239;50.678;12.280;2023-09-12T04:31:03;7.83;;;5.83;;
79755;SDS011;69239;50.678;12.280;2023-09-12T04:33:29;9.35;;;6.82;;
79755;SDS011;69239;50.678;12.280;2023-09-12T04:35:56;6.93;;;5.60;;
79755;SDS011;69239;50.678;12.280;2023-09-12T04:38:22;9.10;;;6.00;;
79755;SDS011;69239;50.678;12.280;2023-09-12T04:41:01;10.27;;;6.53;;
79755;SDS011;69239;50.678;12.280;2023-09-12T04:43:28;9.55;;;5.93;;
79755;SDS011;69239;50.678;12.280;2023-09-12T04:45:53;11.63;;;6.78;;
79755;SDS011;69239;50.678;12.280;2023-09-12T04:48:18;10.17;;;6.63;;
79755;SDS011;69239;50.678;12.280;2023-09-12T04:50:43;9.00;;;6.28;;
79755;SDS011;69239;50.678;12.280;2023-09-12T04:53:09;10.35;;;6.80;;
79755;SDS011;69239;50.678;12.280;2023-09-12T04:55:35;9.60;;;6.57;;
79755;SDS011;69239;50.678;12.280;2023-09-12T04:58:01;11.07;;;6.63;;
79755;SDS011;69239;50.678;12.280;2023-09-12T05:00:27;8.05;;;6.13;;
79755;SDS011;69239;50.678;12.280;2023-09-12T05:02:52;11.77;;;6.30;;
79755;SDS011;69239;50.678;12.280;2023-09-12T05:05:17;13.63;;;7.00;;
79755;SDS011;69239;50.678;12.280;2023-09-12T05:07:43;10.80;;;6.50;;
79755;SDS011;69239;50.678;12.280;2023-09-12T05:10:08;9.82;;;6.80;;
79755;SDS011;69239;50.678;12.280;2023-09-12T05:12:33;11.23;;;6.93;;
79755;SDS011;69239;50.678;12.280;2023-09-12T05:14:59;13.85;;;7.78;;
79755;SDS011;69239;50.678;12.280;2023-09-12T05:17:24;14.60;;;7.15;;
79755;SDS011;69239;50.678;12.280;2023-09-12T05:19:50;10.55;;;7.07;;
79755;SDS011;69239;50.678;12.280;2023-09-12T05:22:15;11.88;;;7.03;;
79755;SDS011;69239;50.678;12.280;2023-09-12T05:24:40;10.70;;;7.88;;
79755;SDS011;69239;50.678;12.280;2023-09-12T05:27:06;9.43;;;7.05;;
79755;SDS011;69239;50.678;12.280;2023-09-12T05:29:31;11.43;;;7.88;;
79755;SDS011;69239;50.678;12.280;2023-09-12T05:31:57;8.73;;;6.82;;
79755;SDS011;69239;50.678;12.280;2023-09-12T05:34:22;10.75;;;7.20;;
79755;SDS011;69239;50.678;12.280;2023-09-12T05:36:47;10.52;;;7.10;;
79755;SDS011;69239;50.678;12.280;2023-09-12T05:39:13;10.60;;;6.97;;
79755;SDS011;69239;50.678;12.280;2023-09-12T05:41:39;12.77;;;8.18;;
79755;SDS011;69239;50.678;12.280;2023-09-12T05:44:04;10.23;;;7.35;;
79755;SDS011;69239;50.678;12.280;2023-09-12T05:46:30;12.63;;;7.47;;
79755;SDS011;69239;50.678;12.280;2023-09-12T05:48:55;10.57;;;7.13;;
79755;SDS011;69239;50.678;12.280;2023-09-12T05:51:21;13.45;;;8.13;;
79755;SDS011;69239;50.678;12.280;2023-09-12T05:53:46;12.15;;;8.65;;
79755;SDS011;69239;50.678;12.280;2023-09-12T05:56:11;11.33;;;8.17;;
79755;SDS011;69239;50.678;12.280;2023-09-12T05:58:37;13.02;;;8.13;;
79755;SDS011;69239;50.678;12.280;2023-09-12T06:01:06;10.80;;;7.78;;
79755;SDS011;69239;50.678;12.280;2023-09-12T06:03:32;10.43;;;7.68;;
79755;SDS011;69239;50.678;12.280;2023-09-12T06:05:57;11.77;;;7.25;;
79755;SDS011;69239;50.678;12.280;2023-09-12T06:08:22;10.63;;;7.45;;
79755;SDS011;69239;50.678;12.280;2023-09-12T06:10:49;11.70;;;7.85;;
79755;SDS011;69239;50.678;12.280;2023-09-12T06:13:18;9.13;;;6.82;;
79755;SDS011;69239;50.678;12.280;2023-09-12T06:15:44;11.55;;;7.10;;
79755;SDS011;69239;50.678;12.280;2023-09-12T06:18:09;14.43;;;8.07;;
79755;SDS011;69239;50.678;12.280;2023-09-12T06:20:35;14.80;;;7.38;;
79755;SDS011;69239;50.678;12.280;2023-09-12T06:23:01;11.32;;;7.20;;
79755;SDS011;69239;50.678;12.280;2023-09-12T06:25:26;12.15;;;7.30;;
79755;SDS011;69239;50.678;12.280;2023-09-12T06:27:54;11.38;;;7.70;;
79755;SDS011;69239;50.678;12.280;2023-09-12T06:30:19;10.73;;;7.22;;
79755;SDS011;69239;50.678;12.280;2023-09-12T06:32:45;13.73;;;7.65;;
79755;SDS011;69239;50.678;12.280;2023-09-12T06:35:10;11.88;;;8.05;;
79755;SDS011;69239;50.678;12.280;2023-09-12T06:37:37;13.10;;;8.18;;
79755;SDS011;69239;50.678;12.280;2023-09-12T06:40:04;10.45;;;7.68;;
79755;SDS011;69239;50.678;12.280;2023-09-12T06:42:31;9.85;;;6.93;;
79755;SDS011;69239;50.678;12.280;2023-09-12T06:44:56;10.85;;;7.47;;
79755;SDS011;69239;50.678;12.280;2023-09-12T06:47:22;10.77;;;7.45;;
79755;SDS011;69239;50.678;12.280;2023-09-12T06:49:47;9.85;;;7.13;;
79755;SDS011;69239;50.678;12.280;2023-09-12T06:52:12;11.40;;;7.63;;
79755;SDS011;69239;50.678;12.280;2023-09-12T06:54:38;8.40;;;6.20;;
79755;SDS011;69239;50.678;12.280;2023-09-12T06:57:04;9.20;;;6.78;;
79755;SDS011;69239;50.678;12.280;2023-09-12T06:59:29;10.57;;;6.88;;
79755;SDS011;69239;50.678;12.280;2023-09-12T07:01:55;10.18;;;6.57;;
79755;SDS011;69239;50.678;12.280;2023-09-12T07:04:21;8.88;;;6.85;;
79755;SDS011;69239;50.678;12.280;2023-09-12T07:06:46;12.07;;;7.05;;
79755;SDS011;69239;50.678;12.280;2023-09-12T07:09:12;28.75;;;7.35;;
79755;SDS011;69239;50.678;12.280;2023-09-12T07:11:40;10.00;;;6.95;;
79755;SDS011;69239;50.678;12.280;2023-09-12T07:14:11;15.10;;;7.07;;
79755;SDS011;69239;50.678;12.280;2023-09-12T07:16:36;11.40;;;7.75;;
79755;SDS011;69239;50.678;12.280;2023-09-12T07:19:02;14.25;;;6.97;;
79755;SDS011;69239;50.678;12.280;2023-09-12T07:21:28;13.10;;;6.95;;
79755;SDS011;69239;50.678;12.280;2023-09-12T07:23:54;10.43;;;6.90;;
79755;SDS011;69239;50.678;12.280;2023-09-12T07:26:20;9.45;;;7.22;;
79755;SDS011;69239;50.678;12.280;2023-09-12T07:28:46;13.70;;;6.93;;
79755;SDS011;69239;50.678;12.280;2023-09-12T07:31:11;11.07;;;6.82;;
79755;SDS011;69239;50.678;12.280;2023-09-12T07:33:36;11.75;;;6.50;;
79755;SDS011;69239;50.678;12.280;2023-09-12T07:36:02;13.30;;;7.03;;
79755;SDS011;69239;50.678;12.280;2023-09-12T07:38:28;12.32;;;7.05;;
79755;SDS011;69239;50.678;12.280;2023-09-12T07:40:55;8.73;;;6.63;;
79755;SDS011;69239;50.678;12.280;2023-09-12T07:43:21;10.43;;;7.45;;
79755;SDS011;69239;50.678;12.280;2023-09-12T07:45:46;10.35;;;7.05;;
79755;SDS011;69239;50.678;12.280;2023-09-12T07:48:12;11.13;;;6.75;;
79755;SDS011;69239;50.678;12.280;2023-09-12T07:50:37;11.38;;;6.93;;
79755;SDS011;69239;50.678;12.280;2023-09-12T07:53:06;8.98;;;6.68;;
79755;SDS011;69239;50.678;12.280;2023-09-12T07:55:36;8.45;;;6.35;;
79755;SDS011;69239;50.678;12.280;2023-09-12T07:58:10;11.80;;;6.53;;
79755;SDS011;69239;50.678;12.280;2023-09-12T08:00:36;9.80;;;6.85;;
79755;SDS011;69239;50.678;12.280;2023-09-12T08:03:01;11.02;;;6.50;;
79755;SDS011;69239;50.678;12.280;2023-09-12T08:05:34;8.57;;;6.57;;
79755;SDS011;69239;50.678;12.280;2023-09-12T08:07:59;12.40;;;6.95;;
79755;SDS011;69239;50.678;12.280;2023-09-12T08:10:25;9.70;;;7.20;;
79755;SDS011;69239;50.678;12.280;2023-09-12T08:12:51;11.55;;;7.07;;
79755;SDS011;69239;50.678;12.280;2023-09-12T08:15:16;9.48;;;6.88;;
79755;SDS011;69239;50.678;12.280;2023-09-12T08:17:42;11.40;;;6.88;;
79755;SDS011;69239;50.678;12.280;2023-09-12T08:20:08;12.98;;;6.50;;
79755;SDS011;69239;50.678;12.280;2023-09-12T08:22:37;10.27;;;6.55;;
79755;SDS011;69239;50.678;12.280;2023-09-12T08:25:03;12.38;;;6.78;;
79755;SDS011;69239;50.678;12.280;2023-09-12T08:27:29;14.15;;;6.50;;
79755;SDS011;69239;50.678;12.280;2023-09-12T08:29:54;11.00;;;6.97;;
79755;SDS011;69239;50.678;12.280;2023-09-12T08:32:20;7.32;;;5.93;;
79755;SDS011;69239;50.678;12.280;2023-09-12T08:34:46;9.52;;;7.13;;
79755;SDS011;69239;50.678;12.280;2023-09-12T08:37:11;11.13;;;7.45;;
79755;SDS011;69239;50.678;12.280;2023-09-12T08:39:40;9.23;;;6.88;;
79755;SDS011;69239;50.678;12.280;2023-09-12T08:42:14;10.57;;;6.25;;
79755;SDS011;69239;50.678;12.280;2023-09-12T08:44:43;10.75;;;7.30;;
79755;SDS011;69239;50.678;12.280;2023-09-12T08:47:09;8.40;;;6.10;;
79755;SDS011;69239;50.678;12.280;2023-09-12T08:49:36;10.40;;;6.57;;
79755;SDS011;69239;50.678;12.280;2023-09-12T08:52:07;10.60;;;7.15;;
79755;SDS011;69239;50.678;12.280;2023-09-12T08:54:34;9.10;;;7.43;;
79755;SDS011;69239;50.678;12.280;2023-09-12T08:57:03;12.18;;;6.68;;
79755;SDS011;69239;50.678;12.280;2023-09-12T08:59:33;10.25;;;6.15;;
79755;SDS011;69239;50.678;12.280;2023-09-12T09:01:59;12.55;;;6.85;;
79755;SDS011;69239;50.678;12.280;2023-09-12T09:04:28;15.13;;;7.03;;
79755;SDS011;69239;50.678;12.280;2023-09-12T09:06:56;10.23;;;6.50;;
79755;SDS011;69239;50.678;12.280;2023-09-12T09:09:23;11.13;;;6.63;;
79755;SDS011;69239;50.678;12.280;2023-09-12T09:11:49;10.45;;;5.85;;
79755;SDS011;69239;50.678;12.280;2023-09-12T09:14:15;16.98;;;6.50;;
79755;SDS011;69239;50.678;12.280;2023-09-12T09:16:40;10.88;;;5.78;;
79755;SDS011;69239;50.678;12.280;2023-09-12T09:19:06;13.02;;;5.70;;
79755;SDS011;69239;50.678;12.280;2023-09-12T09:21:35;29.75;;;6.68;;
79755;SDS011;69239;50.678;12.280;2023-09-12T09:24:03;13.45;;;5.15;;
79755;SDS011;69239;50.678;12.280;2023-09-12T09:29:20;11.25;;;5.43;;
79755;SDS011;69239;50.678;12.280;2023-09-12T09:31:47;9.07;;;4.70;;
79755;SDS011;69239;50.678;12.280;2023-09-12T09:34:17;10.85;;;5.05;;
79755;SDS011;69239;50.678;12.280;2023-09-12T09:36:44;10.48;;;5.32;;
79755;SDS011;69239;50.678;12.280;2023-09-12T09:39:26;9.10;;;4.57;;
79755;SDS011;69239;50.678;12.280;2023-09-12T09:41:55;11.35;;;4.60;;
79755;SDS011;69239;50.678;12.280;2023-09-12T09:44:22;9.57;;;4.05;;
79755;SDS011;69239;50.678;12.280;2023-09-12T09:46:52;10.43;;;4.40;;
79755;SDS011;69239;50.678;12.280;2023-09-12T09:49:20;10.77;;;3.83;;
79755;SDS011;69239;50.678;12.280;2023-09-12T09:51:46;12.07;;;4.18;;
79755;SDS011;69239;50.678;12.280;2023-09-12T09:54:13;11.25;;;4.70;;
79755;SDS011;69239;50.678;12.280;2023-09-12T09:56:45;9.27;;;4.25;;
79755;SDS011;69239;50.678;12.280;2023-09-12T09:59:18;12.57;;;5.22;;
79755;SDS011;69239;50.678;12.280;2023-09-12T10:01:45;8.43;;;4.47;;
79755;SDS011;69239;50.678;12.280;2023-09-12T10:04:11;9.95;;;4.47;;
79755;SDS011;69239;50.678;12.280;2023-09-12T10:06:37;10.20;;;4.80;;
79755;SDS011;69239;50.678;12.280;2023-09-12T10:09:13;8.27;;;4.38;;
79755;SDS011;69239;50.678;12.280;2023-09-12T10:11:40;9.77;;;4.32;;
79755;SDS011;69239;50.678;12.280;2023-09-12T10:14:07;8.38;;;4.70;;
79755;SDS011;69239;50.678;12.280;2023-09-12T10:16:37;9.85;;;4.20;;
79755;SDS011;69239;50.678;12.280;2023-09-12T10:19:19;10.05;;;4.40;;
79755;SDS011;69239;50.678;12.280;2023-09-12T10:21:53;8.45;;;4.68;;
79755;SDS011;69239;50.678;12.280;2023-09-12T10:24:24;11.73;;;4.82;;
79755;SDS011;69239;50.678;12.280;2023-09-12T10:26:50;9.70;;;4.05;;
79755;SDS011;69239;50.678;12.280;2023-09-12T10:29:17;9.63;;;4.40;;
79755;SDS011;69239;50.678;12.280;2023-09-12T10:31:42;11.80;;;4.10;;
79755;SDS011;69239;50.678;12.280;2023-09-12T10:34:10;11.68;;;4.50;;
79755;SDS011;69239;50.678;12.280;2023-09-12T10:36:38;9.45;;;3.58;;
79755;SDS011;69239;50.678;12.280;2023-09-12T10:39:04;13.15;;;4.55;;
79755;SDS011;69239;50.678;12.280;2023-09-12T10:41:31;10.23;;;4.00;;
79755;SDS011;69239;50.678;12.280;2023-09-12T10:43:58;8.50;;;3.90;;
79755;SDS011;69239;50.678;12.280;2023-09-12T10:46:25;11.50;;;4.20;;
79755;SDS011;69239;50.678;12.280;2023-09-12T10:48:50;9.40;;;3.88;;
79755;SDS011;69239;50.678;12.280;2023-09-12T10:51:16;7.97;;;4.15;;
79755;SDS011;69239;50.678;12.280;2023-09-12T10:53:46;10.30;;;4.18;;
79755;SDS011;69239;50.678;12.280;2023-09-12T10:56:19;10.75;;;4.18;;
79755;SDS011;69239;50.678;12.280;2023-09-12T11:01:29;7.90;;;4.05;;
79755;SDS011;69239;50.678;12.280;2023-09-12T11:03:55;8.15;;;4.18;;
79755;SDS011;69239;50.678;12.280;2023-09-12T11:06:39;8.65;;;4.30;;
79755;SDS011;69239;50.678;12.280;2023-09-12T11:11:46;10.45;;;3.95;;
79755;SDS011;69239;50.678;12.280;2023-09-12T11:14:12;8.15;;;3.90;;
79755;SDS011;69239;50.678;12.280;2023-09-12T11:16:38;10.77;;;3.90;;
79755;SDS011;69239;50.678;12.280;2023-09-12T11:21:52;13.23;;;4.35;;
79755;SDS011;69239;50.678;12.280;2023-09-12T11:24:19;9.02;;;4.63;;
79755;SDS011;69239;50.678;12.280;2023-09-12T11:29:30;10.95;;;4.40;;
79755;SDS011;69239;50.678;12.280;2023-09-12T11:32:01;7.70;;;3.60;;
79755;SDS011;69239;50.678;12.280;2023-09-12T11:34:28;6.75;;;4.00;;
79755;SDS011;69239;50.678;12.280;2023-09-12T11:36:55;13.10;;;4.32;;
79755;SDS011;69239;50.678;12.280;2023-09-12T11:39:28;7.53;;;3.97;;
79755;SDS011;69239;50.678;12.280;2023-09-12T11:41:58;10.07;;;4.03;;
79755;SDS011;69239;50.678;12.280;2023-09-12T11:44:24;7.82;;;3.70;;
79755;SDS011;69239;50.678;12.280;2023-09-12T11:46:52;11.68;;;3.72;;
79755;SDS011;69239;50.678;12.280;2023-09-12T11:49:27;9.85;;;4.60;;
79755;SDS011;69239;50.678;12.280;2023-09-12T11:52:07;7.07;;;4.30;;
79755;SDS011;69239;50.678;12.280;2023-09-12T11:54:38;10.02;;;4.00;;
79755;SDS011;69239;50.678;12.280;2023-09-12T11:57:06;6.07;;;3.85;;
79755;SDS011;69239;50.678;12.280;2023-09-12T11:59:33;7.63;;;3.85;;
79755;SDS011;69239;50.678;12.280;2023-09-12T12:02:05;8.63;;;4.50;;
79755;SDS011;69239;50.678;12.280;2023-09-12T12:06:57;10.88;;;4.20;;
79755;SDS011;69239;50.678;12.280;2023-09-12T12:09:22;13.05;;;4.70;;
79755;SDS011;69239;50.678;12.280;2023-09-12T12:11:48;7.25;;;4.32;;
79755;SDS011;69239;50.678;12.280;2023-09-12T12:14:14;8.48;;;4.25;;
79755;SDS011;69239;50.678;12.280;2023-09-12T12:16:41;8.10;;;4.40;;
79755;SDS011;69239;50.678;12.280;2023-09-12T12:19:09;9.07;;;3.80;;
79755;SDS011;69239;50.678;12.280;2023-09-12T12:21:38;12.18;;;4.45;;
79755;SDS011;69239;50.678;12.280;2023-09-12T12:24:04;8.40;;;4.43;;
79755;SDS011;69239;50.678;12.280;2023-09-12T12:26:32;11.70;;;4.47;;
79755;SDS011;69239;50.678;12.280;2023-09-12T12:28:59;7.85;;;4.53;;
79755;SDS011;69239;50.678;12.280;2023-09-12T12:31:26;7.60;;;3.92;;
79755;SDS011;69239;50.678;12.280;2023-09-12T12:33:55;6.70;;;3.83;;
79755;SDS011;69239;50.678;12.280;2023-09-12T12:36:22;6.82;;;3.70;;
79755;SDS011;69239;50.678;12.280;2023-09-12T12:38:48;7.72;;;3.83;;
79755;SDS011;69239;50.678;12.280;2023-09-12T12:41:25;8.13;;;3.92;;
79755;SDS011;69239;50.678;12.280;2023-09-12T12:43:51;10.07;;;4.20;;
79755;SDS011;69239;50.678;12.280;2023-09-12T12:46:17;9.20;;;4.00;;
79755;SDS011;69239;50.678;12.280;2023-09-12T12:48:49;10.48;;;4.35;;
79755;SDS011;69239;50.678;12.280;2023-09-12T12:51:19;10.30;;;4.38;;
79755;SDS011;69239;50.678;12.280;2023-09-12T12:54:03;9.32;;;4.10;;
79755;SDS011;69239;50.678;12.280;2023-09-12T12:58:56;9.20;;;4.03;;
79755;SDS011;69239;50.678;12.280;2023-09-12T13:01:23;8.57;;;3.97;;
79755;SDS011;69239;50.678;12.280;2023-09-12T13:03:49;5.18;;;3.95;;
79755;SDS011;69239;50.678;12.280;2023-09-12T13:06:19;8.45;;;4.28;;
79755;SDS011;69239;50.678;12.280;2023-09-12T13:08:45;5.20;;;3.90;;
79755;SDS011;69239;50.678;12.280;2023-09-12T13:11:13;8.52;;;4.07;;
79755;SDS011;69239;50.678;12.280;2023-09-12T13:13:39;6.97;;;3.78;;
79755;SDS011;69239;50.678;12.280;2023-09-12T13:16:06;7.97;;;3.95;;
79755;SDS011;69239;50.678;12.280;2023-09-12T13:18:34;9.70;;;4.53;;
79755;SDS011;69239;50.678;12.280;2023-09-12T13:21:00;5.78;;;3.80;;
79755;SDS011;69239;50.678;12.280;2023-09-12T13:23:26;7.40;;;3.85;;
79755;SDS011;69239;50.678;12.280;2023-09-12T13:25:52;8.40;;;4.28;;
79755;SDS011;69239;50.678;12.280;2023-09-12T13:28:18;6.28;;;3.83;;
79755;SDS011;69239;50.678;12.280;2023-09-12T13:30:44;8.43;;;4.63;;
79755;SDS011;69239;50.678;12.280;2023-09-12T13:33:10;10.45;;;4.10;;
79755;SDS011;69239;50.678;12.280;2023-09-12T13:35:36;8.73;;;3.95;;
79755;SDS011;69239;50.678;12.280;2023-09-12T13:38:02;8.63;;;4.10;;
79755;SDS011;69239;50.678;12.280;2023-09-12T13:40:29;7.65;;;3.40;;
79755;SDS011;69239;50.678;12.280;2023-09-12T13:42:54;8.40;;;4.22;;
79755;SDS011;69239;50.678;12.280;2023-09-12T13:45:19;6.65;;;3.88;;
79755;SDS011;69239;50.678;12.280;2023-09-12T13:47:45;10.68;;;3.83;;
79755;SDS011;69239;50.678;12.280;2023-09-12T13:50:10;7.28;;;3.75;;
79755;SDS011;69239;50.678;12.280;2023-09-12T13:52:35;8.82;;;3.85;;
79755;SDS011;69239;50.678;12.280;2023-09-12T13:55:01;7.07;;;3.90;;
79755;SDS011;69239;50.678;12.280;2023-09-12T13:57:28;7.90;;;3.90;;
79755;SDS011;69239;50.678;12.280;2023-09-12T13:59:53;7.18;;;4.32;;
79755;SDS011;69239;50.678;12.280;2023-09-12T14:02:19;13.05;;;4.43;;
79755;SDS011;69239;50.678;12.280;2023-09-12T14:04:44;13.07;;;4.45;;
79755;SDS011;69239;50.678;12.280;2023-09-12T14:07:10;10.25;;;4.82;;
79755;SDS011;69239;50.678;12.280;2023-09-12T14:09:35;12.90;;;4.53;;
79755;SDS011;69239;50.678;12.280;2023-09-12T14:12:01;8.02;;;4.15;;
79755;SDS011;69239;50.678;12.280;2023-09-12T14:14:26;9.48;;;4.18;;
79755;SDS011;69239;50.678;12.280;2023-09-12T14:16:51;7.33;;;4.00;;
79755;SDS011;69239;50.678;12.280;2023-09-12T14:19:16;7.45;;;4.18;;
79755;SDS011;69239;50.678;12.280;2023-09-12T14:21:42;9.20;;;4.50;;
79755;SDS011;69239;50.678;12.280;2023-09-12T14:24:09;7.97;;;4.35;;
79755;SDS011;69239;50.678;12.280;2023-09-12T14:26:34;10.18;;;4.55;;
79755;SDS011;69239;50.678;12.280;2023-09-12T14:29:00;12.80;;;4.53;;
79755;SDS011;69239;50.678;12.280;2023-09-12T14:31:25;14.30;;;5.15;;
79755;SDS011;69239;50.678;12.280;2023-09-12T14:33:50;8.20;;;3.95;;
79755;SDS011;69239;50.678;12.280;2023-09-12T14:36:17;11.30;;;4.63;;
79755;SDS011;69239;50.678;12.280;2023-09-12T14:38:42;9.52;;;4.40;;
79755;SDS011;69239;50.678;12.280;2023-09-12T14:41:11;13.07;;;5.35;;
79755;SDS011;69239;50.678;12.280;2023-09-12T14:43:37;9.80;;;5.50;;
79755;SDS011;69239;50.678;12.280;2023-09-12T14:46:02;6.88;;;4.75;;
79755;SDS011;69239;50.678;12.280;2023-09-12T14:48:29;11.18;;;4.90;;
79755;SDS011;69239;50.678;12.280;2023-09-12T14:50:58;14.20;;;4.93;;
79755;SDS011;69239;50.678;12.280;2023-09-12T14:53:24;11.10;;;4.70;;
79755;SDS011;69239;50.678;12.280;2023-09-12T14:55:49;10.68;;;5.00;;
79755;SDS011;69239;50.678;12.280;2023-09-12T14:58:14;9.37;;;4.97;;